Time;durP1;ratioP1;P1;durP2;ratioP2;P2;SDS_P1;SDS_P2;PMS_P1;PMS_P2;Temp;Humidity;BMP_temperature;BMP_pressure;BME280_temperature;BME280_humidity;BME280_pressure;Samples;Min_cycle;Max_cycle;Signal;HPM_P1;HPM_P2
2021/09/02 00:00:13;;;;;;;;;15.50;13.50;;;;;19.33;53.38;102086.78;5040964;28;48597;-72
2021/09/02 00:02:38;;;;;;;;;15.50;15.50;;;;;19.30;52.90;102084.22;5041215;28;45442;-72
2021/09/02 00:05:05;;;;;;;;;14.00;12.25;;;;;19.32;53.07;102093.16;5040922;28;45438;-72
2021/09/02 00:07:31;;;;;;;;;16.50;14.00;;;;;19.30;52.99;102098.63;5041373;28;45344;-72
2021/09/02 00:09:56;;;;;;;;;10.75;10.00;;;;;19.20;53.22;102090.06;5039597;28;45347;-72
2021/09/02 00:12:22;;;;;;;;;17.25;13.00;;;;;19.22;53.22;102093.56;5041321;28;45293;-72
2021/09/02 00:14:47;;;;;;;;;12.50;12.50;;;;;19.16;53.41;102077.66;5038163;28;45425;-72
2021/09/02 00:17:13;;;;;;;;;15.50;13.75;;;;;19.19;53.30;102082.88;5040733;28;45454;-72
2021/09/02 00:19:38;;;;;;;;;12.75;12.75;;;;;19.19;53.39;102082.03;5041140;28;45461;-72
2021/09/02 00:22:04;;;;;;;;;15.50;13.75;;;;;19.20;53.21;102086.50;5039002;28;45378;-72
2021/09/02 00:24:29;;;;;;;;;15.25;13.00;;;;;19.11;53.19;102067.97;5040656;28;45232;-72
2021/09/02 00:26:55;;;;;;;;;18.00;15.25;;;;;19.16;53.37;102076.75;5041081;28;45379;-72
2021/09/02 00:29:20;;;;;;;;;16.25;14.75;;;;;19.10;53.35;102068.94;5040721;28;45327;-72
2021/09/02 00:31:46;;;;;;;;;15.75;12.00;;;;;19.14;53.56;102076.81;5040843;28;45315;-72
2021/09/02 00:34:11;;;;;;;;;17.00;16.75;;;;;19.14;53.64;102063.28;5040469;28;45479;-72
2021/09/02 00:36:37;;;;;;;;;17.00;16.50;;;;;19.15;53.35;102069.59;5040806;28;46028;-72
2021/09/02 00:39:02;;;;;;;;;16.00;14.75;;;;;19.09;53.45;102054.50;5040424;28;45474;-72
2021/09/02 00:41:28;;;;;;;;;17.00;17.00;;;;;19.08;53.43;102047.38;5040493;28;46118;-72
2021/09/02 00:43:53;;;;;;;;;19.75;15.25;;;;;19.04;53.44;102040.31;5039428;28;45439;-72
2021/09/02 00:46:18;;;;;;;;;22.50;17.00;;;;;19.06;53.73;102057.34;5040830;28;45377;-72
2021/09/02 00:48:46;;;;;;;;;23.00;22.25;;;;;19.00;53.60;102052.25;5040553;28;45378;-72
2021/09/02 00:51:14;;;;;;;;;15.25;14.00;;;;;18.98;53.93;102046.03;5040251;28;46359;-72
2021/09/02 00:53:40;;;;;;;;;16.25;16.00;;;;;18.97;53.86;102044.28;5039003;28;45470;-72
2021/09/02 00:56:05;;;;;;;;;23.75;19.75;;;;;18.96;53.57;102043.41;5040187;28;45407;-72
2021/09/02 00:58:31;;;;;;;;;18.25;17.00;;;;;18.95;53.88;102046.19;5040249;28;45504;-71
2021/09/02 01:00:56;;;;;;;;;19.75;18.75;;;;;18.83;53.79;102037.69;5040311;28;45318;-72
2021/09/02 01:03:21;;;;;;;;;19.25;16.50;;;;;18.90;53.68;102053.66;5040425;28;45221;-72
2021/09/02 01:05:53;;;;;;;;;20.25;18.75;;;;;18.87;54.02;102050.09;5039958;28;45444;-72
2021/09/02 01:08:19;;;;;;;;;17.75;16.25;;;;;18.82;53.77;102054.81;5040039;28;45423;-72
2021/09/02 01:10:49;;;;;;;;;24.25;19.75;;;;;18.84;53.88;102061.09;5049050;28;46098;-73
2021/09/02 01:13:14;;;;;;;;;16.00;14.75;;;;;18.81;54.15;102069.31;5042410;28;45427;-72
2021/09/02 01:15:39;;;;;;;;;20.00;19.00;;;;;18.79;54.04;102065.78;5038744;28;45368;-72
2021/09/02 01:18:05;;;;;;;;;25.25;21.25;;;;;18.80;54.20;102066.69;5039770;28;45374;-72
2021/09/02 01:20:31;;;;;;;;;18.50;16.50;;;;;18.79;54.09;102063.06;5039196;28;51720;-72
2021/09/02 01:23:00;;;;;;;;;20.25;18.25;;;;;18.65;54.33;102038.50;5039770;28;45185;-72
2021/09/02 01:25:28;;;;;;;;;21.00;17.00;;;;;18.74;53.86;102050.72;5039852;28;45654;-72
2021/09/02 01:28:05;;;;;;;;;25.00;22.00;;;;;18.70;54.37;102044.56;5039775;28;45327;-72
2021/09/02 01:30:31;;;;;;;;;21.25;18.00;;;;;18.66;54.01;102040.25;5039796;28;46644;-72
2021/09/02 01:32:57;;;;;;;;;21.50;19.25;;;;;18.66;54.03;102041.13;5039785;28;45253;-72
2021/09/02 01:35:24;;;;;;;;;24.00;19.25;;;;;18.62;54.40;102042.22;5052016;28;45264;-72
2021/09/02 01:37:55;;;;;;;;;16.25;14.50;;;;;18.62;54.59;102035.94;5040189;28;45174;-72
2021/09/02 01:40:28;;;;;;;;;20.50;19.00;;;;;18.51;54.23;102020.22;5038411;28;46296;-72
2021/09/02 01:42:54;;;;;;;;;22.75;19.25;;;;;18.58;54.41;102037.03;5039633;28;45610;-72
2021/09/02 01:45:20;;;;;;;;;19.25;15.75;;;;;18.60;54.38;102025.19;5049849;28;45398;-72
2021/09/02 01:47:47;;;;;;;;;20.25;18.00;;;;;18.61;54.68;102018.84;5039662;28;45545;-72
2021/09/02 01:50:18;;;;;;;;;19.50;18.50;;;;;18.60;54.60;102014.38;5040862;28;45400;-72
2021/09/02 01:52:45;;;;;;;;;15.50;15.00;;;;;18.62;54.38;102026.00;5050702;28;45272;-72
2021/09/02 01:55:11;;;;;;;;;17.00;16.50;;;;;18.65;54.52;102030.38;5026003;28;45498;-72
2021/09/02 01:57:38;;;;;;;;;18.75;18.25;;;;;18.61;54.67;102032.38;5047062;28;45379;-72
2021/09/02 02:00:05;;;;;;;;;21.00;19.50;;;;;18.59;54.49;102027.97;5045042;28;46188;-72
2021/09/02 02:02:30;;;;;;;;;17.50;15.25;;;;;18.58;54.33;102027.09;5038833;28;45554;-72
2021/09/02 02:04:55;;;;;;;;;11.50;11.25;;;;;18.61;54.45;102031.47;5039398;28;45323;-72
2021/09/02 02:07:21;;;;;;;;;15.75;13.75;;;;;18.64;54.75;102039.44;5039427;28;47870;-72
2021/09/02 02:09:46;;;;;;;;;14.25;13.00;;;;;18.64;54.19;102031.31;5038536;28;45391;-72
2021/09/02 02:12:12;;;;;;;;;20.50;15.00;;;;;18.65;54.35;102033.09;5047118;28;45549;-72
2021/09/02 02:14:37;;;;;;;;;21.00;16.25;;;;;18.63;54.55;102026.88;5044809;28;45386;-72
2021/09/02 02:17:03;;;;;;;;;19.25;17.50;;;;;18.60;54.62;102022.47;5039133;28;45310;-72
2021/09/02 02:19:28;;;;;;;;;20.50;19.50;;;;;18.59;54.66;102025.25;5039981;28;47328;-72
2021/09/02 02:21:54;;;;;;;;;21.00;17.50;;;;;18.51;54.28;102004.84;5044170;28;45738;-72
2021/09/02 02:24:19;;;;;;;;;17.50;15.00;;;;;18.50;54.77;102003.09;5039408;28;45366;-72
2021/09/02 02:26:44;;;;;;;;;19.50;18.75;;;;;18.48;54.50;102002.28;5038993;28;45328;-72
2021/09/02 02:29:10;;;;;;;;;20.50;18.75;;;;;18.48;54.54;102005.00;5038965;28;45446;-72
2021/09/02 02:31:35;;;;;;;;;21.75;19.50;;;;;18.44;54.64;101997.09;5038964;28;45318;-72
2021/09/02 02:34:00;;;;;;;;;20.00;20.00;;;;;18.42;54.77;101990.88;5041311;28;45401;-72
2021/09/02 02:36:26;;;;;;;;;22.75;19.00;;;;;18.44;54.94;102003.41;5042461;28;45386;-72
2021/09/02 02:38:51;;;;;;;;;22.75;21.75;;;;;18.38;54.71;101997.38;5041307;28;46121;-72
2021/09/02 02:41:16;;;;;;;;;17.25;16.25;;;;;18.37;55.26;101996.50;5042197;28;45289;-72
2021/09/02 02:43:42;;;;;;;;;22.25;20.00;;;;;18.39;54.64;101996.41;5042443;28;45485;-72
2021/09/02 02:46:07;;;;;;;;;21.00;19.75;;;;;18.38;55.22;101998.25;5042464;28;45548;-72
2021/09/02 02:48:33;;;;;;;;;16.75;14.75;;;;;18.32;55.29;101991.28;5042264;28;45281;-72
2021/09/02 02:50:58;;;;;;;;;20.25;17.50;;;;;18.32;54.98;101988.56;5041570;28;45281;-72
2021/09/02 02:53:23;;;;;;;;;19.25;18.50;;;;;18.38;54.82;102000.09;5042594;28;45277;-72
2021/09/02 02:55:49;;;;;;;;;26.00;25.00;;;;;18.36;54.59;101997.47;5028797;28;45218;-72
2021/09/02 02:58:14;;;;;;;;;23.50;20.25;;;;;18.36;55.08;101988.44;5042035;28;45362;-72
2021/09/02 03:00:39;;;;;;;;;20.75;17.75;;;;;18.32;54.99;101976.91;5041560;28;45242;-72
2021/09/02 03:03:05;;;;;;;;;22.25;22.25;;;;;18.37;54.82;101985.66;5041851;28;45458;-72
2021/09/02 03:05:30;;;;;;;;;25.25;20.75;;;;;18.34;54.84;101972.28;5041771;28;45301;-72
2021/09/02 03:07:56;;;;;;;;;23.00;19.50;;;;;18.40;55.00;101981.97;5041803;28;45295;-72
2021/09/02 03:10:21;;;;;;;;;23.25;21.00;;;;;18.40;54.77;101987.38;5040869;28;45380;-71
2021/09/02 03:12:46;;;;;;;;;28.75;22.75;;;;;18.32;54.83;101974.19;5042182;28;45712;-72
2021/09/02 03:15:12;;;;;;;;;21.25;18.75;;;;;18.35;55.17;101982.16;5041519;28;45526;-72
2021/09/02 03:17:37;;;;;;;;;24.25;23.75;;;;;18.31;54.94;101978.72;5041826;28;46453;-72
2021/09/02 03:20:05;;;;;;;;;21.50;21.00;;;;;18.31;55.34;101984.13;5043694;28;45333;-72
2021/09/02 03:22:31;;;;;;;;;26.00;24.75;;;;;18.29;55.00;101983.34;5049535;28;45319;-72
2021/09/02 03:24:56;;;;;;;;;24.00;21.25;;;;;18.18;55.09;101968.56;5041930;28;45522;-72
2021/09/02 03:27:21;;;;;;;;;24.75;21.50;;;;;18.24;55.00;101982.66;5041642;28;46332;-72
2021/09/02 03:29:47;;;;;;;;;23.75;22.75;;;;;18.22;55.39;101964.75;5041372;28;45323;-72
2021/09/02 03:32:12;;;;;;;;;24.25;22.75;;;;;18.19;55.52;101964.88;5041831;28;45232;-72
2021/09/02 03:34:38;;;;;;;;;23.50;21.75;;;;;18.26;55.47;101977.16;5041601;28;45412;-72
2021/09/02 03:37:03;;;;;;;;;23.25;22.50;;;;;18.25;55.22;101984.41;5041512;28;45365;-72
2021/09/02 03:39:29;;;;;;;;;19.00;18.75;;;;;18.21;55.02;101965.69;5040620;28;45385;-72
2021/09/02 03:41:54;;;;;;;;;18.50;17.75;;;;;18.22;55.12;101967.44;5041293;28;45304;-72
2021/09/02 03:44:19;;;;;;;;;22.00;20.00;;;;;18.22;55.59;101953.94;5041123;28;45436;-72
2021/09/02 03:46:45;;;;;;;;;23.25;22.00;;;;;18.30;55.40;101960.75;5041282;28;46080;-72
2021/09/02 03:49:10;;;;;;;;;24.00;22.00;;;;;18.24;55.15;101949.34;5041390;28;45257;-72
2021/09/02 03:51:35;;;;;;;;;28.25;24.25;;;;;18.30;55.00;101957.19;5040976;28;45349;-72
2021/09/02 03:54:01;;;;;;;;;26.50;24.50;;;;;18.29;55.29;101959.00;5036979;28;45483;-72
2021/09/02 03:56:26;;;;;;;;;24.75;23.25;;;;;18.28;55.16;101945.56;5032250;28;45950;-72
2021/09/02 03:58:52;;;;;;;;;25.50;22.00;;;;;18.14;55.02;101928.16;5040958;28;45383;-72
2021/09/02 04:01:18;;;;;;;;;31.00;23.50;;;;;18.24;55.35;101946.63;5040247;28;45512;-72
2021/09/02 04:03:43;;;;;;;;;22.50;21.50;;;;;18.12;55.49;101930.03;5041116;28;45320;-72
2021/09/02 04:06:09;;;;;;;;;30.25;26.00;;;;;18.12;55.04;101934.56;5041123;28;45317;-72
2021/09/02 04:08:34;;;;;;;;;27.25;24.00;;;;;18.18;55.19;101952.34;5040899;28;46829;-72
2021/09/02 04:10:59;;;;;;;;;24.75;24.00;;;;;18.21;55.40;101966.59;5040824;28;45390;-72
2021/09/02 04:13:25;;;;;;;;;24.00;21.00;;;;;18.20;55.19;101972.94;5040812;28;45371;-72
2021/09/02 04:15:50;;;;;;;;;21.75;20.50;;;;;18.17;55.52;101967.66;5040787;28;46130;-72
2021/09/02 04:18:16;;;;;;;;;22.75;21.50;;;;;18.21;55.70;101972.00;5040716;28;45320;-72
2021/09/02 04:20:41;;;;;;;;;21.25;21.00;;;;;18.22;55.59;101975.56;5040606;28;45284;-72
2021/09/02 04:23:06;;;;;;;;;25.00;23.00;;;;;18.19;55.23;101971.16;5040577;28;45313;-72
2021/09/02 04:25:32;;;;;;;;;29.25;22.50;;;;;18.12;55.19;101965.16;5040760;28;45351;-72
2021/09/02 04:27:57;;;;;;;;;26.25;23.50;;;;;18.15;55.48;101974.97;5040654;28;45388;-72
2021/09/02 04:30:22;;;;;;;;;27.50;25.50;;;;;18.12;55.51;101967.84;5036867;28;45197;-72
2021/09/02 04:32:48;;;;;;;;;23.75;22.50;;;;;18.13;55.31;101968.75;5040683;28;45240;-72
2021/09/02 04:35:13;;;;;;;;;24.00;21.25;;;;;17.98;55.50;101951.41;5040483;28;46870;-72
2021/09/02 04:37:42;;;;;;;;;24.50;23.75;;;;;18.08;55.22;101968.09;5040614;28;46541;-72
2021/09/02 04:40:08;;;;;;;;;27.75;24.75;;;;;18.02;55.26;101960.25;5040205;28;45289;-72
2021/09/02 04:42:34;;;;;;;;;24.25;21.25;;;;;18.04;55.82;101971.84;5040405;28;45397;-72
2021/09/02 04:45:00;;;;;;;;;36.25;30.00;;;;;18.04;55.32;101970.03;5040572;28;45487;-72
2021/09/02 04:47:26;;;;;;;;;24.00;22.75;;;;;17.98;55.63;101958.63;5040265;28;45512;-72
2021/09/02 04:49:52;;;;;;;;;24.25;22.00;;;;;17.98;55.63;101964.91;5040193;28;45320;-72
2021/09/02 04:52:18;;;;;;;;;24.25;24.00;;;;;17.98;55.85;101972.16;5040401;28;45278;-72
2021/09/02 04:54:43;;;;;;;;;24.50;22.75;;;;;17.96;55.99;101964.97;5030145;28;45424;-72
2021/09/02 04:57:08;;;;;;;;;26.25;23.75;;;;;17.95;55.87;101967.75;5036338;28;45301;-72
2021/09/02 04:59:34;;;;;;;;;20.50;20.50;;;;;17.90;55.69;101959.81;5039430;28;45284;-72
2021/09/02 05:01:59;;;;;;;;;29.75;23.75;;;;;17.84;55.44;101954.69;5040198;28;45238;-72
2021/09/02 05:04:25;;;;;;;;;31.50;24.00;;;;;17.89;56.02;101962.59;5040323;28;46177;-72
2021/09/02 05:06:50;;;;;;;;;27.00;24.75;;;;;17.84;55.53;101953.78;5039842;28;45352;-72
2021/09/02 05:09:15;;;;;;;;;28.75;26.75;;;;;17.89;55.61;101968.91;5040445;28;45308;-72
2021/09/02 05:11:41;;;;;;;;;40.50;29.75;;;;;17.84;55.51;101962.78;5039882;28;45503;-71
2021/09/02 05:14:06;;;;;;;;;33.75;26.25;;;;;17.75;55.88;101939.72;5039874;28;46622;-71
2021/09/02 05:16:32;;;;;;;;;28.25;26.25;;;;;17.83;55.73;101957.44;5038776;28;45311;-72
2021/09/02 05:18:57;;;;;;;;;29.25;27.25;;;;;17.78;55.93;101949.53;5037316;28;45255;-72
2021/09/02 05:21:22;;;;;;;;;25.75;24.50;;;;;17.79;55.70;101956.69;5039301;28;46723;-72
2021/09/02 05:23:47;;;;;;;;;23.00;23.00;;;;;17.79;55.86;101962.06;5039781;28;46278;-72
2021/09/02 05:26:13;;;;;;;;;21.75;21.25;;;;;17.74;55.64;101959.59;5039687;28;45296;-72
2021/09/02 05:28:41;;;;;;;;;26.25;25.25;;;;;17.73;56.08;101946.16;5050349;28;45433;-72
2021/09/02 05:31:06;;;;;;;;;30.75;24.00;;;;;17.74;56.00;101947.91;5033005;28;45395;-72
2021/09/02 05:33:31;;;;;;;;;28.75;22.75;;;;;17.80;55.84;101949.47;5039629;28;45286;-72
2021/09/02 05:35:57;;;;;;;;;26.75;23.75;;;;;17.80;55.96;101946.78;5039476;28;45232;-72
2021/09/02 05:38:22;;;;;;;;;27.25;23.25;;;;;17.80;55.85;101942.25;5038979;28;45412;-72
2021/09/02 05:40:47;;;;;;;;;28.00;24.75;;;;;17.76;55.66;101941.50;5039075;28;45451;-72
2021/09/02 05:43:13;;;;;;;;;27.75;27.00;;;;;17.78;55.67;101952.25;5039614;28;46254;-72
2021/09/02 05:45:38;;;;;;;;;30.50;25.50;;;;;17.75;55.74;101947.84;5035227;28;45213;-72
2021/09/02 05:48:04;;;;;;;;;29.00;27.25;;;;;17.77;56.11;101962.16;5039638;28;45370;-72
2021/09/02 05:50:30;;;;;;;;;29.25;25.00;;;;;17.75;55.64;101958.63;5039086;28;45550;-72
2021/09/02 05:52:55;;;;;;;;;26.25;22.75;;;;;17.69;56.30;101958.03;5039704;28;46004;-72
2021/09/02 05:55:21;;;;;;;;;27.50;25.50;;;;;17.71;55.78;101953.47;5034427;28;45425;-72
2021/09/02 05:57:47;;;;;;;;;33.75;29.25;;;;;17.73;55.70;101962.38;5039679;28;45527;-71
2021/09/02 06:00:13;;;;;;;;;22.00;21.00;;;;;17.72;56.13;101966.88;5038383;28;45411;-71
2021/09/02 06:02:38;;;;;;;;;25.25;21.75;;;;;17.75;56.50;101966.75;5034623;28;45420;-71
2021/09/02 06:05:04;;;;;;;;;24.75;23.75;;;;;17.74;55.97;101956.91;5039143;28;45478;-71
2021/09/02 06:07:30;;;;;;;;;29.50;26.50;;;;;17.72;55.86;101961.47;5040876;28;45377;-71
2021/09/02 06:09:55;;;;;;;;;30.75;29.00;;;;;17.68;55.94;101953.59;5044789;28;45340;-71
2021/09/02 06:12:20;;;;;;;;;29.25;25.75;;;;;17.69;56.51;101967.03;5053609;28;45367;-71
2021/09/02 06:14:45;;;;;;;;;24.00;23.50;;;;;17.64;55.98;101957.34;5045039;28;49193;-71
2021/09/02 06:17:11;;;;;;;;;25.50;24.50;;;;;17.64;56.39;101957.34;5042005;28;45597;-71
2021/09/02 06:19:36;;;;;;;;;26.25;26.25;;;;;17.65;55.93;101961.81;5039985;28;45578;-71
2021/09/02 06:22:02;;;;;;;;;28.75;27.25;;;;;17.60;56.29;101959.31;5042798;28;45498;-71
2021/09/02 06:24:27;;;;;;;;;31.25;26.25;;;;;17.65;56.17;101965.38;5040136;28;45246;-74
2021/09/02 06:26:53;;;;;;;;;29.25;23.25;;;;;17.61;56.32;101955.66;5040219;28;45182;-73
2021/09/02 06:29:18;;;;;;;;;26.75;25.25;;;;;17.62;56.22;101957.41;5040704;28;45433;-75
2021/09/02 06:31:43;;;;;;;;;31.00;25.75;;;;;17.60;56.54;101959.31;5041525;28;45284;-75
2021/09/02 06:34:09;;;;;;;;;29.25;25.75;;;;;17.64;56.53;101965.44;5041436;28;46620;-76
2021/09/02 06:36:34;;;;;;;;;29.50;25.00;;;;;17.64;56.57;101970.84;5042182;28;45260;-76
2021/09/02 06:38:59;;;;;;;;;33.00;29.75;;;;;17.63;56.33;101969.97;5049309;28;45263;-76
2021/09/02 06:41:25;;;;;;;;;27.50;26.25;;;;;17.56;56.22;101963.97;5042250;28;46075;-76
2021/09/02 06:43:50;;;;;;;;;35.75;31.75;;;;;17.55;56.62;101961.31;5041788;28;45414;-76
2021/09/02 06:46:15;;;;;;;;;32.00;30.25;;;;;17.53;56.19;101965.91;5042244;28;45310;-76
2021/09/02 06:48:41;;;;;;;;;28.75;26.75;;;;;17.58;56.89;101975.56;5051442;28;45659;-74
2021/09/02 06:51:06;;;;;;;;;32.00;29.75;;;;;17.59;56.50;101965.63;5041741;28;45875;-75
2021/09/02 06:53:31;;;;;;;;;33.00;28.75;;;;;17.61;56.46;101979.97;5043162;28;45338;-75
2021/09/02 06:55:57;;;;;;;;;29.75;27.00;;;;;17.62;56.54;101976.31;5023525;28;45391;-74
2021/09/02 06:58:22;;;;;;;;;36.00;33.50;;;;;17.67;56.46;101982.38;5039579;28;45494;-74
2021/09/02 07:00:47;;;;;;;;;38.75;32.50;;;;;17.67;56.69;101974.28;5036818;28;46281;-74
2021/09/02 07:03:13;;;;;;;;;41.75;34.50;;;;;17.70;56.33;101976.00;5037289;28;45316;-74
2021/09/02 07:05:38;;;;;;;;;38.75;34.50;;;;;17.70;56.71;101976.84;5026040;28;45482;-74
2021/09/02 07:08:03;;;;;;;;;29.50;26.50;;;;;17.71;56.97;101970.53;5036236;28;45471;-73
2021/09/02 07:10:29;;;;;;;;;29.00;27.25;;;;;17.71;56.47;101975.94;5027644;28;46475;-73
2021/09/02 07:12:54;;;;;;;;;39.75;32.75;;;;;17.68;56.67;101967.09;5036847;28;45509;-74
2021/09/02 07:15:19;;;;;;;;;32.75;28.50;;;;;17.59;57.00;101947.63;5025588;28;45510;-73
2021/09/02 07:17:45;;;;;;;;;33.50;29.25;;;;;17.72;56.57;101974.97;5023562;28;45600;-74
2021/09/02 07:20:11;;;;;;;;;36.50;31.25;;;;;17.69;56.46;101972.44;5037300;28;46098;-74
2021/09/02 07:22:37;;;;;;;;;31.75;28.75;;;;;17.75;56.98;101982.06;5039306;28;45796;-75
2021/09/02 07:25:03;;;;;;;;;35.00;31.75;;;;;17.78;56.89;101984.66;5025144;28;45370;-75
2021/09/02 07:27:29;;;;;;;;;38.00;31.25;;;;;17.74;56.77;101978.50;5024395;28;45400;-74
2021/09/02 07:29:54;;;;;;;;;33.00;31.25;;;;;17.78;56.47;101982.81;5039232;28;46081;-75
2021/09/02 07:32:19;;;;;;;;;32.50;29.25;;;;;17.78;56.44;101985.50;5038685;28;45622;-75
2021/09/02 07:34:45;;;;;;;;;29.25;28.75;;;;;17.83;56.67;101990.72;5024016;28;45379;-74
2021/09/02 07:37:11;;;;;;;;;39.50;34.00;;;;;17.86;56.40;101992.41;5035277;28;45675;-74
2021/09/02 07:39:37;;;;;;;;;42.25;33.75;;;;;17.88;56.36;101987.88;5035034;28;46023;-75
2021/09/02 07:42:06;;;;;;;;;42.75;34.50;;;;;17.90;56.50;101992.25;5038916;28;45826;-74
2021/09/02 07:44:31;;;;;;;;;41.75;34.75;;;;;17.92;56.53;101986.78;5041121;28;45315;-74
2021/09/02 07:46:57;;;;;;;;;42.00;35.25;;;;;17.93;56.77;101994.81;5038473;28;45577;-75
2021/09/02 07:49:22;;;;;;;;;38.50;34.00;;;;;17.94;56.74;101990.28;5038934;28;45431;-74
2021/09/02 07:51:48;;;;;;;;;35.25;31.75;;;;;17.92;56.74;101982.25;5035900;28;45425;-74
2021/09/02 07:54:13;;;;;;;;;37.25;33.50;;;;;17.91;56.61;101966.13;5045323;28;45431;-74
2021/09/02 07:56:39;;;;;;;;;44.00;35.00;;;;;17.97;56.63;101982.03;5046018;28;45473;-73
2021/09/02 07:59:04;;;;;;;;;38.00;34.75;;;;;17.96;56.59;101961.41;5045514;28;46094;-73
2021/09/02 08:01:30;;;;;;;;;38.75;33.00;;;;;18.02;57.08;101979.16;5037789;28;45489;-74
2021/09/02 08:03:55;;;;;;;;;38.25;31.75;;;;;18.03;56.94;101973.69;5040106;28;45368;-75
2021/09/02 08:06:21;;;;;;;;;49.50;35.50;;;;;18.03;57.07;101973.69;5037544;28;45700;-74
2021/09/02 08:08:46;;;;;;;;;42.25;34.75;;;;;18.03;57.12;101965.56;5036619;28;45288;-74
2021/09/02 08:11:11;;;;;;;;;40.50;32.50;;;;;18.14;56.54;101971.38;5043916;28;45539;-75
2021/09/02 08:13:37;;;;;;;;;43.50;35.50;;;;;18.15;56.73;101974.97;5048093;28;45446;-75
2021/09/02 08:16:03;;;;;;;;;39.50;34.50;;;;;18.18;56.37;101974.81;5037913;28;45638;-75
2021/09/02 08:18:29;;;;;;;;;38.00;35.00;;;;;18.23;57.05;101970.09;5043539;28;47169;-75
2021/09/02 08:20:54;;;;;;;;;35.00;30.75;;;;;18.25;56.70;101964.63;5038614;28;45818;-75
2021/09/02 08:23:20;;;;;;;;;38.25;33.75;;;;;18.28;56.73;101961.78;5029361;28;46000;-74
2021/09/02 08:25:45;;;;;;;;;41.75;33.75;;;;;18.26;56.46;101960.94;5033298;28;45498;-75
2021/09/02 08:28:11;;;;;;;;;33.00;29.50;;;;;18.22;56.85;101944.00;5057541;28;47760;-75
2021/09/02 08:30:36;;;;;;;;;30.50;27.25;;;;;18.36;56.80;101956.91;5040714;28;45500;-75
2021/09/02 08:33:02;;;;;;;;;36.75;34.25;;;;;18.37;56.80;101957.78;5038941;28;45493;-75
2021/09/02 08:35:30;;;;;;;;;34.75;32.25;;;;;18.43;57.06;101947.56;5039247;28;45399;-75
2021/09/02 08:37:59;;;;;;;;;37.75;30.00;;;;;18.45;56.50;101947.50;5046662;28;45716;-75
2021/09/02 08:40:27;;;;;;;;;36.75;32.25;;;;;18.49;57.08;101943.69;5038556;28;45417;-75
2021/09/02 08:42:56;;;;;;;;;30.00;26.25;;;;;18.52;56.61;101947.13;5039536;28;45581;-75
2021/09/02 08:45:23;;;;;;;;;33.75;30.50;;;;;18.58;56.53;101945.09;5039231;28;45392;-74
2021/09/02 08:47:50;;;;;;;;;32.75;28.50;;;;;18.59;56.35;101942.28;5028862;28;45529;-75
2021/09/02 08:50:17;;;;;;;;;33.25;30.50;;;;;18.59;56.68;101928.78;5038809;28;45509;-75
2021/09/02 08:52:43;;;;;;;;;34.00;27.25;;;;;18.65;56.63;101928.50;5039406;28;45384;-74
2021/09/02 08:55:09;;;;;;;;;35.25;30.00;;;;;18.69;56.99;101926.50;5038879;28;46520;-75
2021/09/02 08:57:35;;;;;;;;;34.50;30.00;;;;;18.72;56.49;101922.81;5038751;28;45471;-75
2021/09/02 09:00:00;;;;;;;;;37.00;31.50;;;;;18.69;56.25;101921.09;5039148;28;45489;-76
2021/09/02 09:02:28;;;;;;;;;32.00;28.25;;;;;18.81;56.45;101927.75;5039723;28;45507;-75
2021/09/02 09:05:00;;;;;;;;;35.00;27.75;;;;;18.86;56.41;101937.44;5039145;28;45517;-75
2021/09/02 09:07:33;;;;;;;;;28.50;27.00;;;;;18.91;56.67;101934.53;5038450;28;46147;-75
2021/09/02 09:09:59;;;;;;;;;28.00;26.00;;;;;18.92;56.35;101927.28;5036664;28;45470;-75
2021/09/02 09:12:37;;;;;;;;;33.25;33.00;;;;;18.98;56.54;101935.97;5038552;28;45367;-75
2021/09/02 09:15:09;;;;;;;;;26.50;26.50;;;;;19.02;56.50;101931.28;5031337;28;45441;-75
2021/09/02 09:17:35;;;;;;;;;32.00;26.00;;;;;19.08;56.39;101928.28;5038521;28;45524;-76
2021/09/02 09:20:05;;;;;;;;;28.75;23.25;;;;;19.07;56.11;101911.16;5038966;28;45671;-75
2021/09/02 09:22:30;;;;;;;;;29.50;24.75;;;;;19.18;55.83;101916.06;5039323;28;45391;-75
2021/09/02 09:24:58;;;;;;;;;31.75;27.50;;;;;19.20;55.72;101914.13;5039390;28;45375;-75
2021/09/02 09:27:34;;;;;;;;;30.50;28.75;;;;;19.25;56.23;101913.91;5031602;28;46176;-75
2021/09/02 09:30:23;;;;;;;;;28.75;26.25;;;;;19.30;56.15;101903.72;5034549;28;45695;-75
2021/09/02 09:32:52;;;;;;;;;26.75;25.75;;;;;19.36;56.22;101902.53;5035461;28;45387;-75
2021/09/02 09:35:25;;;;;;;;;26.75;26.75;;;;;19.40;56.26;101899.59;5038973;28;45931;-75
2021/09/02 09:38:12;;;;;;;;;29.25;29.00;;;;;19.46;55.77;101894.81;5039361;28;45413;-76
2021/09/02 09:40:41;;;;;;;;;39.50;35.00;;;;;19.49;55.91;101902.78;5026043;28;45542;-75
2021/09/02 09:43:13;;;;;;;;;35.25;29.75;;;;;19.48;55.87;101893.78;5038806;28;45322;-75
2021/09/02 09:45:44;;;;;;;;;42.25;35.00;;;;;19.56;55.78;101904.22;5039640;28;45320;-75
2021/09/02 09:48:22;;;;;;;;;40.75;33.50;;;;;19.61;56.12;101900.31;5038049;28;45515;-75
2021/09/02 09:51:07;;;;;;;;;41.75;33.75;;;;;19.66;55.77;101894.63;5039262;28;45301;-75
2021/09/02 09:53:33;;;;;;;;;30.00;27.50;;;;;19.71;55.90;101899.81;5015730;28;45746;-76
2021/09/02 09:55:59;;;;;;;;;24.50;24.00;;;;;19.74;55.36;101894.25;5034456;28;45511;-73
2021/09/02 09:58:26;;;;;;;;;33.50;27.50;;;;;19.81;55.74;101893.00;5038713;28;47063;-71
2021/09/02 10:01:00;;;;;;;;;23.50;22.75;;;;;19.90;55.41;101899.78;5038503;28;45380;-72
2021/09/02 10:03:28;;;;;;;;;23.00;22.25;;;;;19.94;55.14;101891.38;5040133;28;45210;-73
2021/09/02 10:05:55;;;;;;;;;27.50;24.00;;;;;20.01;55.69;101891.06;5058930;28;45363;-73
2021/09/02 10:08:20;;;;;;;;;25.50;23.25;;;;;20.04;55.30;101888.19;5036275;28;45409;-73
2021/09/02 10:10:49;;;;;;;;;30.00;25.00;;;;;20.14;54.57;101887.59;5033188;28;45502;-73
2021/09/02 10:13:16;;;;;;;;;25.25;23.50;;;;;20.20;55.15;101886.41;5034098;28;45596;-72
2021/09/02 10:15:42;;;;;;;;;21.50;18.75;;;;;20.25;54.79;101888.88;5038813;28;45468;-71
2021/09/02 10:18:07;;;;;;;;;27.00;23.25;;;;;20.30;54.48;101886.78;5040787;28;47173;-71
2021/09/02 10:20:38;;;;;;;;;24.50;22.00;;;;;20.32;54.13;101877.56;5049985;28;45343;-71
2021/09/02 10:23:05;;;;;;;;;21.75;19.25;;;;;20.36;54.09;101881.88;5038818;28;45424;-71
2021/09/02 10:25:31;;;;;;;;;20.75;18.00;;;;;20.41;54.36;101884.31;5039098;28;45153;-74
2021/09/02 10:28:11;;;;;;;;;17.00;17.00;;;;;20.47;54.03;101875.84;5040648;28;45438;-73
2021/09/02 10:30:47;;;;;;;;;22.75;19.00;;;;;20.52;54.01;101878.31;5050865;28;45361;-74
2021/09/02 10:33:34;;;;;;;;;22.25;17.50;;;;;20.56;53.85;101874.44;5025473;28;45456;-74
2021/09/02 10:36:01;;;;;;;;;25.75;23.25;;;;;20.60;53.53;101862.47;5036943;28;45489;-73
2021/09/02 10:38:44;;;;;;;;;23.50;21.00;;;;;20.66;54.24;101855.84;5036737;28;46292;-73
2021/09/02 10:41:12;;;;;;;;;25.00;22.00;;;;;20.71;53.79;101864.59;5036356;28;45352;-74
2021/09/02 10:44:04;;;;;;;;;20.00;17.00;;;;;20.79;53.35;101864.16;5032937;28;45417;-73
2021/09/02 10:46:37;;;;;;;;;25.75;22.00;;;;;20.83;53.86;101863.91;5019929;28;45358;-73
2021/09/02 10:49:27;;;;;;;;;18.25;15.00;;;;;20.89;53.32;101862.66;5034021;28;46379;-74
2021/09/02 10:52:00;;;;;;;;;15.50;15.50;;;;;20.93;53.19;101858.78;5037404;28;45566;-73
2021/09/02 10:54:43;;;;;;;;;25.50;21.75;;;;;20.96;52.71;101858.63;5031156;28;45392;-73
2021/09/02 10:57:12;;;;;;;;;23.00;21.00;;;;;21.02;53.01;101857.41;5037467;28;45629;-72
2021/09/02 10:59:50;;;;;;;;;17.50;15.75;;;;;21.08;52.65;101859.72;5038406;28;46301;-73
2021/09/02 11:02:16;;;;;;;;;20.75;16.50;;;;;21.14;52.74;101866.66;5039934;28;45368;-72
2021/09/02 11:04:42;;;;;;;;;18.25;16.25;;;;;21.11;52.25;101845.97;5040341;28;45444;-72
2021/09/02 11:07:07;;;;;;;;;17.50;14.50;;;;;21.23;52.36;101855.25;5040441;28;45387;-71